sensor_id;sensor_type;location;lat;lon;timestamp;pressure;altitude;pressure_sealevel;temperature;humidity
10462;BME280;5278;42.656;23.374;2022-08-01T00:02:17;94523.44;;;21.87;55.71
10462;BME280;5278;42.656;23.374;2022-08-01T00:04:46;94522.41;;;21.88;55.30
10462;BME280;5278;42.656;23.374;2022-08-01T00:07:14;94517.91;;;21.88;55.40
10462;BME280;5278;42.656;23.374;2022-08-01T00:09:41;94519.22;;;21.86;55.40
10462;BME280;5278;42.656;23.374;2022-08-01T00:12:08;94517.09;;;21.88;55.40
10462;BME280;5278;42.656;23.374;2022-08-01T00:14:35;94509.97;;;21.88;54.90
10462;BME280;5278;42.656;23.374;2022-08-01T00:17:02;94514.47;;;21.88;54.51
10462;BME280;5278;42.656;23.374;2022-08-01T00:19:29;94519.22;;;21.86;55.12
10462;BME280;5278;42.656;23.374;2022-08-01T00:21:57;94517.38;;;21.86;54.74
10462;BME280;5278;42.656;23.374;2022-08-01T00:24:24;94506.69;;;21.76;55.01
10462;BME280;5278;42.656;23.374;2022-08-01T00:26:51;94527.84;;;21.76;55.03
10462;BME280;5278;42.656;23.374;2022-08-01T00:29:18;94534.16;;;21.75;55.12
10462;BME280;5278;42.656;23.374;2022-08-01T00:31:45;94528.06;;;21.75;55.92
10462;BME280;5278;42.656;23.374;2022-08-01T00:34:12;94534.72;;;21.56;58.66
10462;BME280;5278;42.656;23.374;2022-08-01T00:36:39;94530.38;;;21.50;60.05
10462;BME280;5278;42.656;23.374;2022-08-01T00:39:07;94532.16;;;21.44;60.74
10462;BME280;5278;42.656;23.374;2022-08-01T00:41:36;94535.47;;;21.34;61.88
10462;BME280;5278;42.656;23.374;2022-08-01T00:44:04;94534.03;;;21.10;62.90
10462;BME280;5278;42.656;23.374;2022-08-01T00:46:31;94535.69;;;20.99;63.90
10462;BME280;5278;42.656;23.374;2022-08-01T00:48:59;94535.06;;;20.92;64.42
10462;BME280;5278;42.656;23.374;2022-08-01T00:51:28;94531.56;;;20.87;65.20
10462;BME280;5278;42.656;23.374;2022-08-01T00:53:56;94530.31;;;20.78;65.31
10462;BME280;5278;42.656;23.374;2022-08-01T00:56:25;94526.88;;;20.60;66.17
10462;BME280;5278;42.656;23.374;2022-08-01T00:58:54;94526.81;;;20.55;66.60
10462;BME280;5278;42.656;23.374;2022-08-01T01:01:21;94540.47;;;20.52;66.78
10462;BME280;5278;42.656;23.374;2022-08-01T01:03:48;94519.81;;;20.49;67.29
10462;BME280;5278;42.656;23.374;2022-08-01T01:06:25;94519.81;;;20.49;67.16
10462;BME280;5278;42.656;23.374;2022-08-01T01:09:01;94514.06;;;20.52;66.73
10462;BME280;5278;42.656;23.374;2022-08-01T01:11:33;94481.84;;;20.22;67.52
10462;BME280;5278;42.656;23.374;2022-08-01T01:14:06;94506.38;;;20.34;67.47
10462;BME280;5278;42.656;23.374;2022-08-01T01:16:37;94515.66;;;20.37;67.58
10462;BME280;5278;42.656;23.374;2022-08-01T01:19:10;94511.81;;;20.44;67.17
10462;BME280;5278;42.656;23.374;2022-08-01T01:24:58;94511.25;;;20.42;67.34
10462;BME280;5278;42.656;23.374;2022-08-01T01:27:36;94503.31;;;20.42;67.63
10462;BME280;5278;42.656;23.374;2022-08-01T01:30:08;94511.25;;;20.42;66.68
10462;BME280;5278;42.656;23.374;2022-08-01T01:32:36;94504.22;;;20.31;66.79
10462;BME280;5278;42.656;23.374;2022-08-01T01:35:07;94504.63;;;20.40;67.58
10462;BME280;5278;42.656;23.374;2022-08-01T01:37:38;94491.59;;;20.22;68.08
10462;BME280;5278;42.656;23.374;2022-08-01T01:40:07;94494.19;;;20.33;68.33
10462;BME280;5278;42.656;23.374;2022-08-01T01:42:36;94499.84;;;20.25;68.89
10462;BME280;5278;42.656;23.374;2022-08-01T01:45:07;94502.16;;;20.22;69.13
10462;BME280;5278;42.656;23.374;2022-08-01T01:47:36;94492.63;;;20.20;69.43
10462;BME280;5278;42.656;23.374;2022-08-01T01:50:05;94487.91;;;20.23;69.58
10462;BME280;5278;42.656;23.374;2022-08-01T01:52:37;94495.16;;;20.27;69.55
10462;BME280;5278;42.656;23.374;2022-08-01T01:55:07;94490.31;;;20.24;69.38
10462;BME280;5278;42.656;23.374;2022-08-01T01:57:36;94489.59;;;20.29;69.03
10462;BME280;5278;42.656;23.374;2022-08-01T02:00:05;94483.78;;;20.27;69.32
10462;BME280;5278;42.656;23.374;2022-08-01T02:02:36;94478.72;;;20.25;68.84
10462;BME280;5278;42.656;23.374;2022-08-01T02:05:04;94474.81;;;20.28;68.92
10462;BME280;5278;42.656;23.374;2022-08-01T02:07:32;94481.25;;;20.32;68.76
10462;BME280;5278;42.656;23.374;2022-08-01T02:10:00;94466.13;;;20.27;68.86
10462;BME280;5278;42.656;23.374;2022-08-01T02:12:30;94469.09;;;20.31;68.22
10462;BME280;5278;42.656;23.374;2022-08-01T02:15:00;94469.09;;;20.31;68.07
10462;BME280;5278;42.656;23.374;2022-08-01T02:17:27;94471.94;;;20.29;68.90
10462;BME280;5278;42.656;23.374;2022-08-01T02:19:57;94471.72;;;20.31;68.13
10462;BME280;5278;42.656;23.374;2022-08-01T02:22:27;94476.31;;;20.35;66.05
10462;BME280;5278;42.656;23.374;2022-08-01T02:25:01;94475.25;;;20.36;66.27
10462;BME280;5278;42.656;23.374;2022-08-01T02:27:33;94470.44;;;20.33;66.04
10462;BME280;5278;42.656;23.374;2022-08-01T02:30:03;94478.63;;;20.32;66.00
10462;BME280;5278;42.656;23.374;2022-08-01T02:32:34;94471.38;;;20.27;66.40
10462;BME280;5278;42.656;23.374;2022-08-01T02:35:07;94477.53;;;20.16;66.54
10462;BME280;5278;42.656;23.374;2022-08-01T02:37:38;94481.91;;;20.10;66.65
10462;BME280;5278;42.656;23.374;2022-08-01T02:40:08;94479.25;;;20.10;66.85
10462;BME280;5278;42.656;23.374;2022-08-01T02:42:38;94484.84;;;20.14;65.57
10462;BME280;5278;42.656;23.374;2022-08-01T02:45:10;94471.22;;;20.17;65.14
10462;BME280;5278;42.656;23.374;2022-08-01T02:47:38;94456.16;;;20.17;65.34
10462;BME280;5278;42.656;23.374;2022-08-01T02:50:10;94468.75;;;20.27;66.14
10462;BME280;5278;42.656;23.374;2022-08-01T02:52:40;94462.22;;;20.18;65.83
10462;BME280;5278;42.656;23.374;2022-08-01T02:55:09;94468.66;;;20.22;65.99
10462;BME280;5278;42.656;23.374;2022-08-01T02:57:39;94466.47;;;20.19;63.84
10462;BME280;5278;42.656;23.374;2022-08-01T03:00:08;94471.75;;;20.19;63.39
10462;BME280;5278;42.656;23.374;2022-08-01T03:02:37;94475.19;;;20.19;64.33
10462;BME280;5278;42.656;23.374;2022-08-01T03:05:09;94469.13;;;20.19;64.32
10462;BME280;5278;42.656;23.374;2022-08-01T03:07:37;94478.78;;;20.13;65.74
10462;BME280;5278;42.656;23.374;2022-08-01T03:10:06;94482.00;;;20.15;66.11
10462;BME280;5278;42.656;23.374;2022-08-01T03:12:33;94481.69;;;20.12;65.48
10462;BME280;5278;42.656;23.374;2022-08-01T03:15:02;94475.72;;;20.05;65.60
10462;BME280;5278;42.656;23.374;2022-08-01T03:17:30;94478.50;;;19.98;66.26
10462;BME280;5278;42.656;23.374;2022-08-01T03:19:59;94467.75;;;19.88;66.89
10462;BME280;5278;42.656;23.374;2022-08-01T03:22:30;94474.59;;;20.01;66.36
10462;BME280;5278;42.656;23.374;2022-08-01T03:25:02;94482.53;;;20.01;66.50
10462;BME280;5278;42.656;23.374;2022-08-01T03:27:29;94484.34;;;20.00;67.09
10462;BME280;5278;42.656;23.374;2022-08-01T03:29:58;94485.06;;;19.96;67.29
10462;BME280;5278;42.656;23.374;2022-08-01T03:32:26;94478.41;;;19.93;66.79
10462;BME280;5278;42.656;23.374;2022-08-01T03:34:55;94488.16;;;19.93;66.19
10462;BME280;5278;42.656;23.374;2022-08-01T03:37:25;94452.34;;;19.68;66.20
10462;BME280;5278;42.656;23.374;2022-08-01T03:39:58;94479.69;;;19.91;66.15
10462;BME280;5278;42.656;23.374;2022-08-01T03:42:32;94481.13;;;19.98;65.98
10462;BME280;5278;42.656;23.374;2022-08-01T03:45:02;94491.25;;;20.01;66.07
10462;BME280;5278;42.656;23.374;2022-08-01T03:47:33;94493.63;;;20.03;65.84
10462;BME280;5278;42.656;23.374;2022-08-01T03:50:03;94496.34;;;20.08;66.16
10462;BME280;5278;42.656;23.374;2022-08-01T03:52:32;94458.94;;;19.83;66.25
10462;BME280;5278;42.656;23.374;2022-08-01T03:55:04;94496.75;;;20.00;66.29
10462;BME280;5278;42.656;23.374;2022-08-01T03:57:32;94488.72;;;19.95;66.08
10462;BME280;5278;42.656;23.374;2022-08-01T04:00:00;94488.41;;;19.91;65.69
10462;BME280;5278;42.656;23.374;2022-08-01T04:02:28;94480.63;;;19.85;65.62
10462;BME280;5278;42.656;23.374;2022-08-01T04:04:56;94484.66;;;19.87;64.18
10462;BME280;5278;42.656;23.374;2022-08-01T04:07:24;94491.28;;;19.90;62.41
10462;BME280;5278;42.656;23.374;2022-08-01T04:09:52;94488.16;;;19.93;61.36
10462;BME280;5278;42.656;23.374;2022-08-01T04:12:20;94491.38;;;19.95;60.67
10462;BME280;5278;42.656;23.374;2022-08-01T04:14:48;94490.66;;;19.99;60.07
10462;BME280;5278;42.656;23.374;2022-08-01T04:17:15;94496.25;;;20.03;59.90
10462;BME280;5278;42.656;23.374;2022-08-01T04:19:43;94498.72;;;20.21;59.41
10462;BME280;5278;42.656;23.374;2022-08-01T04:22:11;94490.22;;;20.47;58.78
10462;BME280;5278;42.656;23.374;2022-08-01T04:24:40;94472.72;;;20.75;57.87
10462;BME280;5278;42.656;23.374;2022-08-01T04:27:13;94495.53;;;21.14;56.20
10462;BME280;5278;42.656;23.374;2022-08-01T04:29:42;94492.53;;;21.66;55.04
10462;BME280;5278;42.656;23.374;2022-08-01T04:32:11;94484.16;;;22.22;53.66
10462;BME280;5278;42.656;23.374;2022-08-01T04:34:41;94487.88;;;22.75;52.23
10462;BME280;5278;42.656;23.374;2022-08-01T04:37:10;94490.63;;;23.32;50.55
10462;BME280;5278;42.656;23.374;2022-08-01T04:39:40;94489.78;;;23.69;48.66
10462;BME280;5278;42.656;23.374;2022-08-01T04:42:08;94478.25;;;24.05;48.81
10462;BME280;5278;42.656;23.374;2022-08-01T04:44:37;94474.13;;;24.50;48.07
10462;BME280;5278;42.656;23.374;2022-08-01T04:47:07;94464.28;;;25.01;47.10
10462;BME280;5278;42.656;23.374;2022-08-01T04:49:35;94476.22;;;25.39;46.26
10462;BME280;5278;42.656;23.374;2022-08-01T04:52:03;94483.31;;;25.74;45.94
10462;BME280;5278;42.656;23.374;2022-08-01T04:54:33;94473.56;;;26.08;43.48
10462;BME280;5278;42.656;23.374;2022-08-01T04:57:03;94474.94;;;26.54;42.99
10462;BME280;5278;42.656;23.374;2022-08-01T04:59:31;94475.91;;;27.03;42.19
10462;BME280;5278;42.656;23.374;2022-08-01T05:02:11;94463.34;;;27.32;41.13
10462;BME280;5278;42.656;23.374;2022-08-01T05:04:39;94461.19;;;27.63;40.40
10462;BME280;5278;42.656;23.374;2022-08-01T05:07:08;94462.47;;;27.89;39.30
10462;BME280;5278;42.656;23.374;2022-08-01T05:09:36;94458.63;;;28.19;38.57
10462;BME280;5278;42.656;23.374;2022-08-01T05:12:04;94433.06;;;28.13;38.41
10462;BME280;5278;42.656;23.374;2022-08-01T05:14:32;94459.69;;;28.55;37.15
10462;BME280;5278;42.656;23.374;2022-08-01T05:17:02;94462.22;;;28.84;37.37
10462;BME280;5278;42.656;23.374;2022-08-01T05:19:32;94462.03;;;29.13;36.34
10462;BME280;5278;42.656;23.374;2022-08-01T05:22:00;94460.28;;;29.49;35.88
10462;BME280;5278;42.656;23.374;2022-08-01T05:24:30;94438.91;;;29.63;35.61
10462;BME280;5278;42.656;23.374;2022-08-01T05:26:58;94456.97;;;29.99;34.79
10462;BME280;5278;42.656;23.374;2022-08-01T05:29:26;94458.69;;;30.30;34.37
10462;BME280;5278;42.656;23.374;2022-08-01T05:31:54;94441.06;;;30.52;34.00
10462;BME280;5278;42.656;23.374;2022-08-01T05:34:21;94443.72;;;30.88;33.22
10462;BME280;5278;42.656;23.374;2022-08-01T05:36:50;94440.88;;;31.15;31.87
10462;BME280;5278;42.656;23.374;2022-08-01T05:39:17;94455.78;;;31.52;31.95
10462;BME280;5278;42.656;23.374;2022-08-01T05:41:44;94452.09;;;31.79;30.94
10462;BME280;5278;42.656;23.374;2022-08-01T05:44:11;94449.31;;;32.01;30.44
10462;BME280;5278;42.656;23.374;2022-08-01T05:46:39;94455.50;;;32.10;30.24
10462;BME280;5278;42.656;23.374;2022-08-01T05:49:06;94450.66;;;32.21;29.87
10462;BME280;5278;42.656;23.374;2022-08-01T05:51:33;94428.00;;;32.13;30.08
10462;BME280;5278;42.656;23.374;2022-08-01T05:54:02;94465.88;;;32.51;28.99
10462;BME280;5278;42.656;23.374;2022-08-01T05:56:29;94467.47;;;32.61;28.80
10462;BME280;5278;42.656;23.374;2022-08-01T05:58:56;94463.53;;;32.84;28.32
10462;BME280;5278;42.656;23.374;2022-08-01T06:01:23;94464.94;;;33.16;28.02
10462;BME280;5278;42.656;23.374;2022-08-01T06:03:50;94453.22;;;33.12;27.58
10462;BME280;5278;42.656;23.374;2022-08-01T06:06:18;94451.00;;;33.22;27.37
10462;BME280;5278;42.656;23.374;2022-08-01T06:08:46;94453.50;;;33.10;27.24
10462;BME280;5278;42.656;23.374;2022-08-01T06:11:15;94457.50;;;33.21;27.28
10462;BME280;5278;42.656;23.374;2022-08-01T06:13:42;94458.97;;;33.57;26.57
10462;BME280;5278;42.656;23.374;2022-08-01T06:16:09;94462.19;;;33.88;25.94
10462;BME280;5278;42.656;23.374;2022-08-01T06:18:36;94462.59;;;33.69;25.79
10462;BME280;5278;42.656;23.374;2022-08-01T06:21:03;94459.81;;;33.40;25.34
10462;BME280;5278;42.656;23.374;2022-08-01T06:23:30;94463.13;;;33.46;25.05
10462;BME280;5278;42.656;23.374;2022-08-01T06:25:57;94455.94;;;33.58;24.63
10462;BME280;5278;42.656;23.374;2022-08-01T06:28:25;94463.94;;;33.84;24.78
10462;BME280;5278;42.656;23.374;2022-08-01T06:30:53;94455.50;;;33.94;24.71
10462;BME280;5278;42.656;23.374;2022-08-01T06:33:20;94450.09;;;33.94;24.74
10462;BME280;5278;42.656;23.374;2022-08-01T06:35:47;94458.47;;;34.01;24.51
10462;BME280;5278;42.656;23.374;2022-08-01T06:38:14;94455.41;;;34.11;24.08
10462;BME280;5278;42.656;23.374;2022-08-01T06:40:41;94458.16;;;34.32;24.30
10462;BME280;5278;42.656;23.374;2022-08-01T06:43:08;94443.09;;;34.02;24.35
10462;BME280;5278;42.656;23.374;2022-08-01T06:45:38;94445.19;;;33.96;24.79
10462;BME280;5278;42.656;23.374;2022-08-01T06:48:06;94445.81;;;33.93;24.82
10462;BME280;5278;42.656;23.374;2022-08-01T06:50:33;94442.94;;;34.28;24.42
10462;BME280;5278;42.656;23.374;2022-08-01T06:53:01;94441.56;;;34.63;24.14
10462;BME280;5278;42.656;23.374;2022-08-01T06:55:28;94428.72;;;34.60;23.87
10462;BME280;5278;42.656;23.374;2022-08-01T06:57:55;94428.19;;;34.67;23.81
10462;BME280;5278;42.656;23.374;2022-08-01T07:00:25;94385.41;;;34.56;24.05
10462;BME280;5278;42.656;23.374;2022-08-01T07:02:55;94430.44;;;34.85;24.23
10462;BME280;5278;42.656;23.374;2022-08-01T07:05:24;94417.81;;;35.10;23.55
10462;BME280;5278;42.656;23.374;2022-08-01T07:07:51;94415.69;;;35.16;22.97
10462;BME280;5278;42.656;23.374;2022-08-01T07:10:18;94418.19;;;35.33;23.34
10462;BME280;5278;42.656;23.374;2022-08-01T07:12:45;94420.00;;;35.29;23.92
10462;BME280;5278;42.656;23.374;2022-08-01T07:15:12;94417.03;;;34.77;23.86
10462;BME280;5278;42.656;23.374;2022-08-01T07:17:40;94424.22;;;35.06;23.86
10462;BME280;5278;42.656;23.374;2022-08-01T07:20:11;94417.25;;;35.17;23.72
10462;BME280;5278;42.656;23.374;2022-08-01T07:22:38;94418.88;;;35.42;23.93
10462;BME280;5278;42.656;23.374;2022-08-01T07:25:06;94423.66;;;35.45;23.60
10462;BME280;5278;42.656;23.374;2022-08-01T07:27:34;94429.03;;;35.12;23.67
10462;BME280;5278;42.656;23.374;2022-08-01T07:30:01;94435.75;;;34.94;23.96
10462;BME280;5278;42.656;23.374;2022-08-01T07:32:28;94428.06;;;35.17;24.58
10462;BME280;5278;42.656;23.374;2022-08-01T07:34:56;94413.16;;;35.31;24.42
10462;BME280;5278;42.656;23.374;2022-08-01T07:37:25;94432.94;;;34.90;24.40
10462;BME280;5278;42.656;23.374;2022-08-01T07:39:51;94426.88;;;34.73;24.60
10462;BME280;5278;42.656;23.374;2022-08-01T07:42:18;94434.44;;;35.00;24.41
10462;BME280;5278;42.656;23.374;2022-08-01T07:44:47;94424.56;;;34.83;24.58
10462;BME280;5278;42.656;23.374;2022-08-01T07:47:14;94423.75;;;35.04;23.94
10462;BME280;5278;42.656;23.374;2022-08-01T07:49:41;94439.94;;;35.04;23.92
10462;BME280;5278;42.656;23.374;2022-08-01T07:52:08;94432.25;;;34.93;24.10
10462;BME280;5278;42.656;23.374;2022-08-01T07:54:36;94431.63;;;34.55;23.86
10462;BME280;5278;42.656;23.374;2022-08-01T07:57:04;94425.19;;;34.68;23.79
10462;BME280;5278;42.656;23.374;2022-08-01T07:59:31;94435.25;;;34.38;24.11
10462;BME280;5278;42.656;23.374;2022-08-01T08:01:58;94435.88;;;34.97;23.37
10462;BME280;5278;42.656;23.374;2022-08-01T08:04:27;94434.00;;;35.43;23.90
10462;BME280;5278;42.656;23.374;2022-08-01T08:06:54;94420.75;;;35.99;23.15
10462;BME280;5278;42.656;23.374;2022-08-01T08:09:21;94437.53;;;35.68;23.37
10462;BME280;5278;42.656;23.374;2022-08-01T08:11:50;94427.53;;;35.80;23.53
10462;BME280;5278;42.656;23.374;2022-08-01T08:14:17;94432.47;;;36.27;23.15
10462;BME280;5278;42.656;23.374;2022-08-01T08:16:45;94439.59;;;36.72;22.15
10462;BME280;5278;42.656;23.374;2022-08-01T08:19:12;94428.44;;;37.29;21.93
10462;BME280;5278;42.656;23.374;2022-08-01T08:21:39;94438.31;;;37.53;21.32
10462;BME280;5278;42.656;23.374;2022-08-01T08:24:07;94415.56;;;36.98;21.77
10462;BME280;5278;42.656;23.374;2022-08-01T08:26:47;94411.78;;;37.15;21.58
10462;BME280;5278;42.656;23.374;2022-08-01T08:29:16;94428.38;;;37.41;21.49
10462;BME280;5278;42.656;23.374;2022-08-01T08:31:43;94436.00;;;37.67;21.08
10462;BME280;5278;42.656;23.374;2022-08-01T08:34:10;94428.72;;;38.02;20.80
10462;BME280;5278;42.656;23.374;2022-08-01T08:36:37;94424.13;;;38.22;20.29
10462;BME280;5278;42.656;23.374;2022-08-01T08:39:05;94419.38;;;38.50;20.02
10462;BME280;5278;42.656;23.374;2022-08-01T08:41:33;94436.81;;;38.88;19.86
10462;BME280;5278;42.656;23.374;2022-08-01T08:44:01;94433.00;;;38.89;19.99
10462;BME280;5278;42.656;23.374;2022-08-01T08:46:31;94426.66;;;39.65;19.42
10462;BME280;5278;42.656;23.374;2022-08-01T08:49:01;94433.38;;;40.20;18.55
10462;BME280;5278;42.656;23.374;2022-08-01T08:51:30;94429.94;;;40.79;18.42
10462;BME280;5278;42.656;23.374;2022-08-01T08:53:58;94431.88;;;41.09;17.95
10462;BME280;5278;42.656;23.374;2022-08-01T08:56:26;94427.84;;;40.99;18.15
10462;BME280;5278;42.656;23.374;2022-08-01T08:58:55;94434.44;;;40.65;17.45
10462;BME280;5278;42.656;23.374;2022-08-01T09:01:23;94432.13;;;40.67;17.28
10462;BME280;5278;42.656;23.374;2022-08-01T09:03:51;94423.84;;;40.90;17.32
10462;BME280;5278;42.656;23.374;2022-08-01T09:06:20;94422.72;;;40.34;17.99
10462;BME280;5278;42.656;23.374;2022-08-01T09:08:47;94426.41;;;40.49;17.46
10462;BME280;5278;42.656;23.374;2022-08-01T09:11:15;94407.72;;;40.77;17.92
10462;BME280;5278;42.656;23.374;2022-08-01T09:13:41;94416.53;;;41.01;17.03
10462;BME280;5278;42.656;23.374;2022-08-01T09:16:27;94415.63;;;41.60;16.95
10462;BME280;5278;42.656;23.374;2022-08-01T09:19:06;94402.41;;;42.13;16.76
10462;BME280;5278;42.656;23.374;2022-08-01T09:21:34;94411.97;;;42.40;16.03
10462;BME280;5278;42.656;23.374;2022-08-01T09:24:01;94406.69;;;42.72;15.49
10462;BME280;5278;42.656;23.374;2022-08-01T09:26:32;94406.25;;;42.67;15.63
10462;BME280;5278;42.656;23.374;2022-08-01T09:29:02;94402.59;;;42.38;15.83
10462;BME280;5278;42.656;23.374;2022-08-01T09:31:29;94399.63;;;42.64;15.73
10462;BME280;5278;42.656;23.374;2022-08-01T09:33:59;94409.25;;;43.38;15.53
10462;BME280;5278;42.656;23.374;2022-08-01T09:36:45;94407.63;;;43.08;14.90
10462;BME280;5278;42.656;23.374;2022-08-01T09:39:14;94415.00;;;42.97;15.65
10462;BME280;5278;42.656;23.374;2022-08-01T09:41:42;94397.41;;;42.26;15.78
10462;BME280;5278;42.656;23.374;2022-08-01T09:44:09;94399.34;;;41.30;16.16
10462;BME280;5278;42.656;23.374;2022-08-01T09:46:48;94402.41;;;40.92;17.13
10462;BME280;5278;42.656;23.374;2022-08-01T09:49:27;94398.81;;;41.14;16.31
10462;BME280;5278;42.656;23.374;2022-08-01T09:51:54;94402.94;;;41.82;16.40
10462;BME280;5278;42.656;23.374;2022-08-01T09:54:29;94385.34;;;42.30;15.33
10462;BME280;5278;42.656;23.374;2022-08-01T09:57:08;94390.16;;;42.55;15.96
10462;BME280;5278;42.656;23.374;2022-08-01T09:59:35;94391.13;;;42.87;15.85
10462;BME280;5278;42.656;23.374;2022-08-01T10:02:05;94391.94;;;43.02;16.27
10462;BME280;5278;42.656;23.374;2022-08-01T10:04:33;94390.00;;;42.99;15.73
10462;BME280;5278;42.656;23.374;2022-08-01T10:07:05;94383.09;;;42.46;16.65
10462;BME280;5278;42.656;23.374;2022-08-01T10:09:34;94405.53;;;42.15;16.76
10462;BME280;5278;42.656;23.374;2022-08-01T10:12:03;94382.78;;;41.97;16.45
10462;BME280;5278;42.656;23.374;2022-08-01T10:14:31;94361.94;;;42.33;16.12
10462;BME280;5278;42.656;23.374;2022-08-01T10:16:59;94398.56;;;42.97;15.36
10462;BME280;5278;42.656;23.374;2022-08-01T10:19:28;94388.19;;;43.52;15.41
10462;BME280;5278;42.656;23.374;2022-08-01T10:21:57;94385.47;;;43.88;14.47
10462;BME280;5278;42.656;23.374;2022-08-01T10:24:25;94378.78;;;43.67;14.92
10462;BME280;5278;42.656;23.374;2022-08-01T10:26:56;94379.47;;;43.11;15.24
10462;BME280;5278;42.656;23.374;2022-08-01T10:29:31;94380.06;;;42.62;15.26
10462;BME280;5278;42.656;23.374;2022-08-01T10:32:00;94362.63;;;42.19;15.74
10462;BME280;5278;42.656;23.374;2022-08-01T10:34:28;94379.56;;;42.42;15.66
10462;BME280;5278;42.656;23.374;2022-08-01T10:36:58;94379.41;;;42.18;16.69
10462;BME280;5278;42.656;23.374;2022-08-01T10:39:25;94365.59;;;41.96;16.71
10462;BME280;5278;42.656;23.374;2022-08-01T10:41:55;94371.94;;;42.11;16.76
10462;BME280;5278;42.656;23.374;2022-08-01T10:44:23;94383.38;;;41.76;17.47
10462;BME280;5278;42.656;23.374;2022-08-01T10:46:54;94374.19;;;41.10;17.93
10462;BME280;5278;42.656;23.374;2022-08-01T10:49:24;94376.19;;;41.54;17.76
10462;BME280;5278;42.656;23.374;2022-08-01T10:51:54;94370.34;;;42.03;16.80
10462;BME280;5278;42.656;23.374;2022-08-01T10:54:25;94364.69;;;42.40;16.52
10462;BME280;5278;42.656;23.374;2022-08-01T10:56:53;94359.28;;;42.50;16.76
10462;BME280;5278;42.656;23.374;2022-08-01T10:59:23;94364.28;;;41.80;16.66
10462;BME280;5278;42.656;23.374;2022-08-01T11:01:57;94365.84;;;41.77;16.72
10462;BME280;5278;42.656;23.374;2022-08-01T11:04:41;94371.94;;;42.11;16.31
10462;BME280;5278;42.656;23.374;2022-08-01T11:07:15;94346.25;;;42.19;16.12
10462;BME280;5278;42.656;23.374;2022-08-01T11:09:45;94352.41;;;42.85;16.48
10462;BME280;5278;42.656;23.374;2022-08-01T11:12:13;94354.47;;;43.16;16.17
10462;BME280;5278;42.656;23.374;2022-08-01T11:17:50;94341.81;;;42.69;15.74
10462;BME280;5278;42.656;23.374;2022-08-01T11:20:19;94358.06;;;42.34;17.05
10462;BME280;5278;42.656;23.374;2022-08-01T11:26:21;94346.41;;;40.64;17.64
10462;BME280;5278;42.656;23.374;2022-08-01T11:29:11;94355.03;;;40.14;18.29
10462;BME280;5278;42.656;23.374;2022-08-01T11:31:38;94348.31;;;39.78;18.36
10462;BME280;5278;42.656;23.374;2022-08-01T11:34:05;94341.66;;;39.30;19.30
10462;BME280;5278;42.656;23.374;2022-08-01T11:36:32;94352.31;;;38.96;19.42
10462;BME280;5278;42.656;23.374;2022-08-01T11:39:16;94342.22;;;38.97;19.73
10462;BME280;5278;42.656;23.374;2022-08-01T11:41:46;94363.84;;;37.19;20.70
10462;BME280;5278;42.656;23.374;2022-08-01T11:44:16;94351.69;;;37.28;21.44
10462;BME280;5278;42.656;23.374;2022-08-01T11:46:52;94341.53;;;37.10;21.39
10462;BME280;5278;42.656;23.374;2022-08-01T11:49:28;94345.94;;;37.02;21.91
10462;BME280;5278;42.656;23.374;2022-08-01T11:51:59;94352.53;;;36.45;22.56
10462;BME280;5278;42.656;23.374;2022-08-01T11:54:27;94339.97;;;36.53;21.92
10462;BME280;5278;42.656;23.374;2022-08-01T11:57:00;94358.94;;;36.53;22.34
10462;BME280;5278;42.656;23.374;2022-08-01T11:59:27;94353.63;;;36.56;22.43
10462;BME280;5278;42.656;23.374;2022-08-01T12:01:54;94349.84;;;36.45;22.35
10462;BME280;5278;42.656;23.374;2022-08-01T12:04:21;94346.50;;;36.36;22.18
10462;BME280;5278;42.656;23.374;2022-08-01T12:06:48;94341.66;;;36.30;22.44
10462;BME280;5278;42.656;23.374;2022-08-01T12:09:17;94340.44;;;36.03;23.03
10462;BME280;5278;42.656;23.374;2022-08-01T12:11:44;94341.19;;;35.75;23.06
10462;BME280;5278;42.656;23.374;2022-08-01T12:14:18;94343.50;;;35.53;23.91
10462;BME280;5278;42.656;23.374;2022-08-01T12:16:52;94349.38;;;35.30;23.93
10462;BME280;5278;42.656;23.374;2022-08-01T12:19:21;94350.94;;;35.19;23.90
10462;BME280;5278;42.656;23.374;2022-08-01T12:22:08;94343.56;;;35.08;24.58
10462;BME280;5278;42.656;23.374;2022-08-01T12:24:36;94347.72;;;34.93;24.94
10462;BME280;5278;42.656;23.374;2022-08-01T12:27:04;94349.19;;;34.37;25.63
10462;BME280;5278;42.656;23.374;2022-08-01T12:29:35;94341.47;;;34.06;25.53
10462;BME280;5278;42.656;23.374;2022-08-01T12:32:02;94343.44;;;33.97;25.36
10462;BME280;5278;42.656;23.374;2022-08-01T12:34:30;94344.66;;;33.79;25.71
10462;BME280;5278;42.656;23.374;2022-08-01T12:37:00;94343.09;;;33.78;26.09
10462;BME280;5278;42.656;23.374;2022-08-01T12:39:34;94350.66;;;33.84;25.85
10462;BME280;5278;42.656;23.374;2022-08-01T12:42:05;94345.38;;;33.67;25.30
10462;BME280;5278;42.656;23.374;2022-08-01T12:44:34;94334.78;;;33.53;25.99
10462;BME280;5278;42.656;23.374;2022-08-01T12:47:04;94342.94;;;33.45;26.09
10462;BME280;5278;42.656;23.374;2022-08-01T12:49:32;94335.63;;;33.16;26.65
10462;BME280;5278;42.656;23.374;2022-08-01T12:52:00;94333.03;;;32.81;26.67
10462;BME280;5278;42.656;23.374;2022-08-01T12:54:28;94330.84;;;32.40;27.17
10462;BME280;5278;42.656;23.374;2022-08-01T12:56:55;94341.00;;;32.26;27.65
10462;BME280;5278;42.656;23.374;2022-08-01T12:59:24;94340.06;;;32.22;27.84
10462;BME280;5278;42.656;23.374;2022-08-01T13:01:53;94337.78;;;31.90;28.18
10462;BME280;5278;42.656;23.374;2022-08-01T13:04:21;94333.34;;;31.94;28.11
10462;BME280;5278;42.656;23.374;2022-08-01T13:06:52;94339.38;;;31.99;28.34
10462;BME280;5278;42.656;23.374;2022-08-01T13:09:20;94328.28;;;32.10;27.88
10462;BME280;5278;42.656;23.374;2022-08-01T13:11:47;94331.16;;;32.30;28.02
10462;BME280;5278;42.656;23.374;2022-08-01T13:14:26;94322.78;;;32.40;28.03
10462;BME280;5278;42.656;23.374;2022-08-01T13:16:55;94321.34;;;32.52;27.73
10462;BME280;5278;42.656;23.374;2022-08-01T13:19:43;94327.34;;;32.48;27.48
10462;BME280;5278;42.656;23.374;2022-08-01T13:22:10;94312.47;;;32.34;27.64